Weather reports worldwide

Advertisment
Concordia Sagittaria, Italy (16107): temperature & dewpoint: 29.03.2020 01:00:00 - 04.04.2020 01:00:00 (CEST)Concordia Sagittaria, Italy (16107): wind speed: 29.03.2020 01:00:00 - 04.04.2020 01:00:00 (CEST)Concordia Sagittaria, Italy (16107): wind direction: 29.03.2020 01:00:00 - 04.04.2020 01:00:00 (CEST)Concordia Sagittaria, Italy (16107): reduced air pressure: 29.03.2020 01:00:00 - 04.04.2020 01:00:00 (CEST)Concordia Sagittaria, Italy (16107): precipitation: 29.03.2020 01:00:00 - 04.04.2020 01:00:00 (CEST)
Date & Time tt [°C] td [°C] ff [km/h] ff [kn] dd ppp [hPa] rr [mm]
04.04.2020 01:00:00 - - - - - - -
04.04.2020 00:00:00 5,2 3,7 4 2 NNE 1022,0 -
03.04.2020 23:00:00 5,4 3,5 0 0 N 1021,2 -
03.04.2020 22:00:00 7,2 3,8 2 1 SSE 1020,8 -
03.04.2020 21:00:00 9,6 5,1 4 2 S 1020,1 -
03.04.2020 20:00:00 12,7 5,3 9 5 S 1019,3 0,0
03.04.2020 19:00:00 15,3 4,6 8 4 S 1018,7 -
03.04.2020 18:00:00 16,8 4,4 5 3 SSW 1018,3 -
03.04.2020 17:00:00 17,3 4,2 5 3 SE 1018,2 -
03.04.2020 16:00:00 16,5 3,1 4 2 WSW 1018,4 -
03.04.2020 15:00:00 15,8 2,5 5 3 W 1018,9 -
03.04.2020 14:00:00 15,5 2,9 8 4 W 1019,4 0,0
03.04.2020 13:00:00 14,4 2,2 11 6 SW 1019,7 -
03.04.2020 12:00:00 13,3 3,0 2 1 W 1020,0 -
03.04.2020 11:00:00 11,6 5,8 2 1 E 1019,9 -
03.04.2020 10:00:00 8,1 5,0 5 3 NNW 1019,8 -
03.04.2020 09:00:00 5,2 3,7 8 4 N 1019,5 -
03.04.2020 08:00:00 2,0 0,5 5 3 N 1019,7 0,0
03.04.2020 07:00:00 1,1 -0,4 8 4 N 1018,8 -
03.04.2020 06:00:00 0,6 -0,9 4 2 NW 1018,5 -
03.04.2020 05:00:00 0,7 -0,8 0 0 N 1018,3 -
03.04.2020 04:00:00 1,2 -0,3 0 0 N 1018,0 -
03.04.2020 03:00:00 1,8 0,3 0 0 N 1018,2 -
03.04.2020 02:00:00 2,0 0,5 0 0 N 1018,3 0,0
03.04.2020 01:00:00 2,6 1,1 8 4 NE 1018,4 -
03.04.2020 00:00:00 3,3 1,5 4 2 WNW 1018,3 -
02.04.2020 23:00:00 3,8 0,6 0 0 N 1018,0 -
02.04.2020 22:00:00 6,4 2,0 4 2 SSE 1017,9 -
02.04.2020 21:00:00 7,0 0,1 4 2 SE 1017,7 -
02.04.2020 20:00:00 10,3 1,3 5 3 S 1016,9 0,0
02.04.2020 19:00:00 12,6 0,9 9 5 SSE 1016,9 -
02.04.2020 18:00:00 13,6 2,1 9 5 SSW 1017,0 -
02.04.2020 17:00:00 13,7 1,9 8 4 SSE 1017,6 -
02.04.2020 16:00:00 14,2 1,4 11 6 S 1018,0 -
02.04.2020 15:00:00 13,9 -0,7 5 3 SW 1018,7 -
02.04.2020 14:00:00 12,8 -2,0 11 6 W 1019,8 0,0
02.04.2020 13:00:00 11,4 -2,9 11 6 W 1020,4 -
02.04.2020 12:00:00 11,7 -1,2 5 3 ESE 1020,8 -
02.04.2020 11:00:00 10,5 -2,3 9 5 NE 1021,2 -
02.04.2020 10:00:00 8,3 -0,8 9 5 N 1021,5 -
02.04.2020 09:00:00 4,8 -0,3 13 7 NNE 1021,4 -
02.04.2020 08:00:00 1,1 -1,0 13 7 N 1021,5 0,0
02.04.2020 07:00:00 0,0 -2,6 9 5 NNW 1021,4 -
02.04.2020 06:00:00 0,3 -2,0 5 3 NNW 1021,4 -
02.04.2020 05:00:00 0,5 -1,3 8 4 N 1021,8 -
02.04.2020 04:00:00 -0,3 -2,2 2 1 ESE 1022,1 -
02.04.2020 03:00:00 0,7 -2,7 4 2 ESE 1022,7 -
02.04.2020 02:00:00 1,7 -1,6 4 2 ENE 1023,2 0,0
02.04.2020 01:00:00 2,6 -1,3 4 2 ENE 1023,6 -
02.04.2020 00:00:00 2,2 -2,8 4 2 NE 1023,9 -
01.04.2020 23:00:00 5,2 -1,1 5 3 W 1023,5 -
01.04.2020 22:00:00 6,0 -0,8 4 2 WSW 1023,5 -
01.04.2020 21:00:00 6,3 -1,7 5 3 WSW 1023,6 -
01.04.2020 20:00:00 8,0 -1,6 11 6 SSW 1023,4 0,0
01.04.2020 19:00:00 9,8 -2,6 9 5 S 1023,3 -
01.04.2020 18:00:00 10,9 -2,6 9 5 S 1023,2 -
01.04.2020 17:00:00 12,0 -3,5 11 6 S 1023,6 -
01.04.2020 16:00:00 11,7 -4,6 2 1 NE 1024,3 -
01.04.2020 15:00:00 11,2 -3,4 11 6 WNW 1025,2 -
01.04.2020 14:00:00 10,3 -5,4 9 5 W 1026,1 0,0
01.04.2020 13:00:00 10,0 -4,2 4 2 E 1026,8 -
01.04.2020 12:00:00 9,6 -3,8 11 6 NW 1027,7 -
01.04.2020 11:00:00 9,0 -2,4 13 7 NNE 1028,4 -
01.04.2020 10:00:00 6,7 -0,4 11 6 N 1028,6 -
01.04.2020 09:00:00 4,0 -1,9 8 4 NNW 1028,8 -
01.04.2020 08:00:00 0,7 -2,6 5 3 N 1028,6 0,0
01.04.2020 07:00:00 -0,2 -4,2 4 2 NNW 1028,5 -
01.04.2020 06:00:00 0,5 -4,2 5 3 WNW 1028,6 -
01.04.2020 05:00:00 1,6 -4,6 5 3 NNW 1028,7 -
01.04.2020 04:00:00 1,3 -5,7 8 4 NNE 1028,9 -
01.04.2020 03:00:00 2,1 -5,6 9 5 N 1029,0 -
01.04.2020 02:00:00 3,0 -4,8 9 5 N 1029,4 0,0
01.04.2020 01:00:00 2,8 -4,5 5 3 N 1029,5 -
01.04.2020 00:00:00 3,6 -5,2 5 3 N 1029,5 -
31.03.2020 23:00:00 5,7 -4,9 16 9 NE 1029,2 -
31.03.2020 22:00:00 6,5 -5,0 16 9 NE 1028,5 -
31.03.2020 21:00:00 6,8 -5,4 16 9 NE 1027,9 -
31.03.2020 20:00:00 7,7 -5,9 18 10 NE 1027,1 0,0
31.03.2020 19:00:00 9,7 -5,9 18 10 ENE 1026,3 -
31.03.2020 18:00:00 10,6 -6,0 26 14 ENE 1025,9 -
31.03.2020 17:00:00 11,5 -4,8 24 13 ENE 1025,8 -
31.03.2020 16:00:00 11,7 -6,3 11 6 N 1026,1 -
31.03.2020 15:00:00 11,9 -4,4 29 16 E 1026,7 -
31.03.2020 14:00:00 11,6 -3,1 24 13 NNE 1027,1 0,0
31.03.2020 13:00:00 10,9 -3,7 28 15 NE 1027,6 -
31.03.2020 12:00:00 10,2 -4,3 26 14 N 1028,0 -
31.03.2020 11:00:00 9,1 -3,6 22 12 NNE 1028,4 -
31.03.2020 10:00:00 7,7 -3,0 22 12 ENE 1028,4 -
31.03.2020 09:00:00 6,0 -3,0 24 13 ENE 1028,0 -
31.03.2020 08:00:00 3,6 -2,7 11 6 NNE 1027,8 0,0
31.03.2020 07:00:00 2,9 -3,5 11 6 ENE 1027,2 -
31.03.2020 06:00:00 3,5 -3,0 13 7 NE 1026,7 -
31.03.2020 05:00:00 3,1 -2,3 8 4 NE 1026,3 -
31.03.2020 04:00:00 4,6 -1,7 16 9 NE 1026,1 -
31.03.2020 03:00:00 5,1 -1,0 15 8 NE 1026,0 -
31.03.2020 02:00:00 5,4 -0,3 16 9 NE 1025,9 0,0
31.03.2020 01:00:00 5,5 0,2 16 9 ENE 1025,4 -
31.03.2020 00:00:00 5,8 0,7 15 8 NE 1025,3 -
30.03.2020 23:00:00 6,0 1,3 22 12 NE 1025,0 -
30.03.2020 22:00:00 6,3 2,5 18 10 NE 1024,3 -
30.03.2020 21:00:00 6,7 3,1 18 10 NNE 1023,7 -
30.03.2020 20:00:00 6,5 4,0 16 9 NNE 1022,9 0,0
30.03.2020 19:00:00 8,2 2,8 26 14 N 1022,0 -
30.03.2020 18:00:00 9,6 1,9 31 17 N 1021,3 -
30.03.2020 17:00:00 11,1 2,3 48 26 N 1020,9 -
30.03.2020 16:00:00 11,5 2,2 39 21 NNE 1021,2 -
30.03.2020 15:00:00 11,9 3,3 41 22 N 1021,2 -
30.03.2020 14:00:00 11,6 3,3 37 20 NNE 1021,4 0,0
30.03.2020 13:00:00 12,2 3,8 29 16 N 1021,4 -
30.03.2020 12:00:00 12,3 4,4 28 15 NNE 1021,3 -
30.03.2020 11:00:00 12,1 5,0 35 19 N 1021,0 -
30.03.2020 10:00:00 11,8 4,7 29 16 NNE 1020,5 -
30.03.2020 09:00:00 11,1 4,9 31 17 NNE 1019,7 -
30.03.2020 08:00:00 10,3 5,2 28 15 NNE 1019,0 0,0
30.03.2020 07:00:00 10,7 5,8 22 12 NNE 1018,3 -
30.03.2020 06:00:00 11,5 6,6 24 13 NNE 1017,7 -
30.03.2020 05:00:00 11,7 8,1 15 8 N 1017,6 -
30.03.2020 04:00:00 12,0 8,0 26 14 N 1017,4 -
30.03.2020 03:00:00 12,5 7,7 11 6 NNW 1017,7 -
30.03.2020 02:00:00 12,0 8,0 8 4 NNW 1017,5 0,0
30.03.2020 01:00:00 11,3 7,7 9 5 NNW 1017,2 -
30.03.2020 00:00:00 11,8 7,9 5 3 WNW 1017,2 -
29.03.2020 23:00:00 10,8 7,8 5 3 NW 1017,1 -
29.03.2020 22:00:00 9,7 7,1 4 2 ENE 1016,8 -
29.03.2020 21:00:00 10,3 7,5 13 7 NE 1017,0 -
29.03.2020 20:00:00 12,8 7,8 4 2 SSE 1016,3 0,0
29.03.2020 19:00:00 14,4 7,8 13 7 SE 1015,8 -
29.03.2020 18:00:00 19,3 6,0 8 4 S 1015,2 -
29.03.2020 17:00:00 20,4 6,6 4 2 WSW 1015,2 -
29.03.2020 16:00:00 20,6 6,8 5 3 S 1015,6 -
29.03.2020 15:00:00 18,3 9,3 4 2 S 1016,3 -
29.03.2020 14:00:00 18,8 6,9 9 5 S 1016,8 0,0
29.03.2020 13:00:00 17,5 6,0 4 2 NW 1017,2 -
29.03.2020 12:00:00 16,3 5,8 4 2 N 1017,5 -
29.03.2020 11:00:00 15,8 8,2 5 3 NE 1017,9 -
29.03.2020 10:00:00 11,7 8,1 5 3 N 1018,1 -
29.03.2020 09:00:00 8,8 7,2 4 2 N 1018,2 -
29.03.2020 08:00:00 6,8 5,3 5 3 NNW 1018,2 0,0
29.03.2020 07:00:00 5,6 4,1 0 0 N 1017,9 -
29.03.2020 06:00:00 6,3 4,8 2 1 N 1018,1 -
29.03.2020 05:00:00 6,0 4,5 0 0 N 1018,2 -
29.03.2020 04:00:00 6,7 5,2 4 2 N 1018,3 -
29.03.2020 03:00:00 7,1 5,5 2 1 N 1018,8 -
29.03.2020 02:00:00 7,2 5,6 2 1 NNE 1019,0 0,0
29.03.2020 01:00:00 - - - - - - -

tt = temperature
td = dewpoint
ff = wind speed
dd = wind direction
ppp = reduced air pressure
rr = precipitation

Next stations